Eufola, North Carolina
Current Conditions -  °F | °C
As of 1:35 PM on Sunday 23 Nov 2014 (Local Time) from KSVH Reporting Station
Heavy Rain Heavy Rain  
Wind Chill: 37°   Ceiling: 1100
Heat Index: 42°   Visibility: 4mi
Dew Point: 40°   Wind: 7mph
Humidity: 91%   Direction: 40°NE
Pressure: 30.04"   Gusts: NA
Location:  35.8306°N, 80.9003°W
Report Text: KSVH 231835Z AUTO 04006KT 4SM +RA OVC011 06/04 A3004 RMK AO2 P0003 T00550042
Loading
Personal Weather Stations






























Interactive Weather Map New forecast layout! Learn more

10-Day Weather Forecast

Advertisements
Track Severe Weather on mobile